Time;durP1;ratioP1;P1;durP2;ratioP2;P2;SDS_P1;SDS_P2;PMS_P1;PMS_P2;Temp;Humidity;BMP_temperature;BMP_pressure;BME280_temperature;BME280_humidity;BME280_pressure;Samples;Min_cycle;Max_cycle;Signal;HPM_P1;HPM_P2
2022/10/11 00:00:43;;;;;;;9.23;7.67;;;21.90;98.10;;;;;;5045161;28;20462;-60
2022/10/11 00:03:09;;;;;;;8.63;7.47;;;21.90;98.20;;;;;;5054716;28;20974;-58
2022/10/11 00:05:37;;;;;;;8.07;6.30;;;21.80;98.20;;;;;;5038930;28;20461;-57
2022/10/11 00:08:04;;;;;;;8.70;6.53;;;21.80;98.30;;;;;;5041615;28;20464;-58
2022/10/11 00:10:33;;;;;;;10.87;8.00;;;21.80;98.30;;;;;;5044712;28;20461;-59
2022/10/11 00:12:59;;;;;;;7.80;6.40;;;21.80;98.30;;;;;;5038709;28;20446;-59
2022/10/11 00:15:26;;;;;;;8.52;7.13;;;21.80;98.40;;;;;;5031306;28;20447;-57
2022/10/11 00:17:53;;;;;;;9.23;6.27;;;21.80;98.40;;;;;;5047223;28;20685;-59
2022/10/11 00:20:19;;;;;;;7.70;6.90;;;21.70;98.40;;;;;;5059955;28;20467;-60
2022/10/11 00:22:48;;;;;;;8.60;7.03;;;21.70;98.50;;;;;;5038712;28;20462;-57
2022/10/11 00:25:15;;;;;;;9.30;6.07;;;21.70;98.50;;;;;;5045186;28;20514;-56
2022/10/11 00:27:44;;;;;;;10.55;7.53;;;21.70;98.60;;;;;;5042930;28;20203;-55
2022/10/11 00:30:12;;;;;;;7.40;6.03;;;21.60;98.70;;;;;;5038668;28;20543;-59
2022/10/11 00:32:39;;;;;;;7.70;6.00;;;21.60;98.80;;;;;;5041406;28;20468;-58
2022/10/11 00:35:07;;;;;;;9.47;7.40;;;21.50;98.90;;;;;;5053521;28;20457;-59
2022/10/11 00:37:36;;;;;;;9.80;8.30;;;21.50;99.00;;;;;;5047830;28;20457;-59
2022/10/11 00:40:06;;;;;;;8.35;6.57;;;21.50;99.20;;;;;;5041207;28;20489;-57
2022/10/11 00:42:32;;;;;;;7.90;5.77;;;21.40;99.30;;;;;;5035706;28;20214;-55
2022/10/11 00:45:35;;;;;;;7.13;6.13;;;21.30;99.40;;;;;;5049796;28;20481;-56
2022/10/11 00:48:08;;;;;;;8.13;7.15;;;21.30;99.50;;;;;;5044578;28;20472;-58
2022/10/11 00:50:36;;;;;;;9.00;6.87;;;21.20;99.70;;;;;;5047483;28;20190;-58
2022/10/11 00:53:10;;;;;;;8.37;6.87;;;21.20;99.80;;;;;;5063799;28;20444;-56
2022/10/11 00:55:40;;;;;;;9.10;6.50;;;21.20;99.90;;;;;;5043892;28;21070;-59
2022/10/11 00:58:07;;;;;;;9.60;6.03;;;21.10;99.90;;;;;;5041227;28;20461;-59
2022/10/11 01:00:34;;;;;;;7.87;6.47;;;21.10;99.90;;;;;;5044853;28;20203;-59
2022/10/11 01:03:03;;;;;;;7.53;6.60;;;21.10;99.90;;;;;;5047025;28;20813;-57
2022/10/11 01:05:31;;;;;;;10.00;7.20;;;21.10;99.90;;;;;;5057054;28;20465;-58
2022/10/11 01:08:00;;;;;;;11.80;6.72;;;21.10;99.90;;;;;;5049147;28;20196;-59
2022/10/11 01:10:27;;;;;;;7.43;6.37;;;21.00;99.90;;;;;;5046205;28;20202;-59
2022/10/11 01:13:08;;;;;;;9.33;6.63;;;21.00;99.90;;;;;;5044265;28;20461;-59
2022/10/11 01:15:37;;;;;;;6.95;5.55;;;21.00;99.90;;;;;;5047157;28;20461;-57
2022/10/11 01:18:14;;;;;;;9.13;6.82;;;21.00;99.90;;;;;;5040649;28;20207;-60
2022/10/11 01:20:53;;;;;;;10.15;6.82;;;20.90;99.90;;;;;;5045027;28;20202;-56
2022/10/11 01:24:10;;;;;;;7.75;5.95;;;20.90;99.90;;;;;;5038288;28;20199;-58
2022/10/11 01:27:16;;;;;;;6.23;5.57;;;20.90;99.90;;;;;;4984370;28;20661;-59
2022/10/11 01:29:50;;;;;;;7.53;6.27;;;20.80;99.90;;;;;;5051869;28;20797;-59
2022/10/11 01:32:22;;;;;;;8.90;6.30;;;20.80;99.90;;;;;;5040302;28;20505;-59
2022/10/11 01:34:56;;;;;;;7.50;5.90;;;20.80;99.90;;;;;;5054720;28;20466;-57
2022/10/11 01:37:27;;;;;;;7.18;6.40;;;20.80;99.90;;;;;;5040803;28;20496;-59
2022/10/11 01:39:59;;;;;;;7.13;5.75;;;20.70;99.90;;;;;;5035521;28;20207;-56
2022/10/11 01:42:28;;;;;;;7.82;6.68;;;20.70;99.90;;;;;;5038909;28;20203;-58
2022/10/11 01:44:57;;;;;;;7.75;6.15;;;20.70;99.90;;;;;;5060501;28;20222;-58
2022/10/11 01:47:26;;;;;;;7.00;6.13;;;20.70;99.90;;;;;;5049270;28;20195;-55
2022/10/11 01:49:57;;;;;;;8.02;5.80;;;20.70;99.90;;;;;;5038852;28;20195;-60
2022/10/11 01:52:51;;;;;;;7.93;6.05;;;20.70;99.90;;;;;;5058452;28;20206;-60
2022/10/11 01:55:29;;;;;;;7.95;6.50;;;20.60;99.90;;;;;;5041119;28;20203;-59
2022/10/11 01:58:07;;;;;;;7.82;5.93;;;20.60;99.90;;;;;;5030867;28;20206;-60
2022/10/11 02:00:40;;;;;;;6.97;5.10;;;20.60;99.90;;;;;;5044587;28;20194;-58
2022/10/11 02:03:21;;;;;;;7.28;6.50;;;20.60;99.90;;;;;;5050092;28;20191;-59
2022/10/11 02:05:54;;;;;;;7.75;6.25;;;20.60;99.90;;;;;;5038876;28;20221;-58
2022/10/11 02:08:26;;;;;;;7.15;6.45;;;20.50;99.90;;;;;;5056866;28;20195;-60
2022/10/11 02:11:00;;;;;;;7.40;5.22;;;20.50;99.90;;;;;;5073661;28;20198;-58
2022/10/11 02:13:31;;;;;;;8.65;5.63;;;20.50;99.90;;;;;;5040269;28;20268;-60
2022/10/11 02:16:01;;;;;;;6.03;5.43;;;20.50;99.90;;;;;;5045445;28;20555;-59
2022/10/11 02:18:35;;;;;;;8.57;6.95;;;20.40;99.90;;;;;;5039614;28;20204;-60
2022/10/11 02:21:05;;;;;;;5.63;5.10;;;20.40;99.90;;;;;;5047268;28;20282;-58
2022/10/11 02:23:36;;;;;;;8.00;6.05;;;20.40;99.90;;;;;;5043133;28;20544;-58
2022/10/11 02:26:05;;;;;;;5.50;4.80;;;20.40;99.90;;;;;;5044479;28;20286;-58
2022/10/11 02:28:36;;;;;;;7.07;5.93;;;20.40;99.90;;;;;;5037370;28;20198;-53
2022/10/11 02:31:05;;;;;;;8.55;5.35;;;20.40;99.90;;;;;;5036931;28;20199;-59
2022/10/11 02:33:38;;;;;;;8.15;5.55;;;20.30;99.90;;;;;;5040053;28;20187;-58
2022/10/11 02:36:10;;;;;;;6.70;5.63;;;20.40;99.90;;;;;;5033083;28;20196;-58
2022/10/11 02:38:40;;;;;;;6.10;4.38;;;20.40;99.90;;;;;;5033711;28;20195;-59
2022/10/11 02:41:15;;;;;;;7.28;5.45;;;20.40;99.90;;;;;;5036744;28;20495;-54
2022/10/11 02:43:47;;;;;;;10.45;6.45;;;20.40;99.90;;;;;;5030635;28;20195;-59
2022/10/11 02:46:15;;;;;;;5.90;5.00;;;20.30;99.90;;;;;;5035506;28;20191;-60
2022/10/11 02:48:43;;;;;;;5.65;4.75;;;20.40;99.90;;;;;;5033825;28;20555;-59
2022/10/11 02:51:12;;;;;;;6.47;5.10;;;20.30;99.90;;;;;;5033169;28;20204;-59
2022/10/11 02:53:39;;;;;;;5.57;4.55;;;20.30;99.90;;;;;;5046409;28;20208;-59
2022/10/11 02:56:06;;;;;;;7.70;5.30;;;20.30;99.90;;;;;;5040408;28;20218;-60
2022/10/11 02:58:33;;;;;;;5.85;5.25;;;20.30;99.90;;;;;;5039650;28;20200;-61
2022/10/11 03:01:00;;;;;;;8.57;6.28;;;20.30;99.90;;;;;;5033551;28;20208;-59
2022/10/11 03:03:26;;;;;;;6.75;6.10;;;20.20;99.90;;;;;;5040371;28;20196;-59
2022/10/11 03:05:59;;;;;;;7.35;4.97;;;20.20;99.90;;;;;;5037589;28;20223;-57
2022/10/11 03:08:26;;;;;;;9.48;5.32;;;20.20;99.90;;;;;;5041917;28;20206;-59
2022/10/11 03:10:53;;;;;;;6.68;5.20;;;20.20;99.90;;;;;;5035182;28;20195;-56
2022/10/11 03:13:20;;;;;;;6.80;4.72;;;20.20;99.90;;;;;;5032323;28;20277;-59
2022/10/11 03:15:48;;;;;;;7.07;5.10;;;20.20;99.90;;;;;;5040527;28;20656;-56
2022/10/11 03:18:15;;;;;;;5.30;4.68;;;20.10;99.90;;;;;;5030648;28;20270;-58
2022/10/11 03:20:42;;;;;;;6.35;5.10;;;20.20;99.90;;;;;;5031972;28;20207;-58
2022/10/11 03:23:11;;;;;;;8.20;6.65;;;20.20;99.90;;;;;;5037321;28;20195;-60
2022/10/11 03:25:38;;;;;;;6.10;4.35;;;20.10;99.90;;;;;;5051645;28;20214;-59
2022/10/11 03:28:05;;;;;;;6.25;4.30;;;20.10;99.90;;;;;;5044410;28;20195;-60
2022/10/11 03:30:31;;;;;;;5.10;4.60;;;20.10;99.90;;;;;;5032276;28;20212;-56
2022/10/11 03:32:58;;;;;;;6.30;5.30;;;20.10;99.90;;;;;;5043950;28;20199;-59
2022/10/11 03:35:25;;;;;;;5.60;4.88;;;20.10;99.90;;;;;;5039712;28;20200;-58
2022/10/11 03:37:51;;;;;;;6.43;4.97;;;20.00;99.90;;;;;;5062070;28;20198;-55
2022/10/11 03:40:19;;;;;;;6.50;4.65;;;20.00;99.90;;;;;;5040388;28;20187;-58
2022/10/11 03:42:46;;;;;;;6.28;5.30;;;20.00;99.90;;;;;;5032197;28;20213;-58
2022/10/11 03:45:13;;;;;;;6.63;4.85;;;20.00;99.90;;;;;;5041543;28;20223;-59
2022/10/11 03:47:40;;;;;;;7.53;5.47;;;20.00;99.90;;;;;;5033553;28;20203;-59
2022/10/11 03:50:09;;;;;;;5.50;4.78;;;20.00;99.90;;;;;;5034243;28;20196;-56
2022/10/11 03:52:36;;;;;;;5.75;5.25;;;20.00;99.90;;;;;;5031225;28;20199;-54
2022/10/11 03:55:02;;;;;;;6.85;5.07;;;19.90;99.90;;;;;;5030317;28;20207;-58
2022/10/11 03:57:31;;;;;;;6.35;4.88;;;19.90;99.90;;;;;;5038646;28;20188;-60
2022/10/11 03:59:57;;;;;;;5.07;4.57;;;19.90;99.90;;;;;;5047130;28;20195;-59
2022/10/11 04:02:24;;;;;;;4.28;3.88;;;19.90;99.90;;;;;;5040589;28;20199;-60
2022/10/11 04:04:51;;;;;;;5.25;4.72;;;19.90;99.90;;;;;;5045302;28;20293;-59
2022/10/11 04:07:17;;;;;;;5.35;4.05;;;19.80;99.90;;;;;;5040828;28;20547;-60
2022/10/11 04:09:44;;;;;;;6.53;4.57;;;19.80;99.90;;;;;;5049221;28;20192;-58
2022/10/11 04:12:11;;;;;;;5.80;4.43;;;19.80;99.90;;;;;;5038575;28;20207;-55
2022/10/11 04:14:39;;;;;;;7.45;5.00;;;19.80;99.90;;;;;;5036798;28;20203;-53
2022/10/11 04:17:06;;;;;;;7.10;4.95;;;19.80;99.90;;;;;;5038575;28;20257;-54
2022/10/11 04:19:34;;;;;;;5.35;4.60;;;19.90;99.90;;;;;;5050113;28;20557;-59
2022/10/11 04:22:01;;;;;;;5.25;4.20;;;19.90;99.90;;;;;;5039166;28;20692;-60
2022/10/11 04:24:28;;;;;;;4.97;4.30;;;19.80;99.90;;;;;;5032718;28;20242;-59
2022/10/11 04:26:54;;;;;;;5.90;4.05;;;19.80;99.90;;;;;;5038011;28;20662;-57
2022/10/11 04:29:21;;;;;;;5.60;4.28;;;19.80;99.90;;;;;;5042801;28;20210;-58
2022/10/11 04:31:49;;;;;;;5.13;4.30;;;19.70;99.90;;;;;;5036439;28;20199;-57
2022/10/11 04:34:17;;;;;;;4.68;4.28;;;19.70;99.90;;;;;;5035040;28;20199;-53
2022/10/11 04:36:44;;;;;;;4.97;4.40;;;19.70;99.90;;;;;;5052651;28;20198;-60
2022/10/11 04:39:11;;;;;;;5.10;4.53;;;19.70;99.90;;;;;;5036148;28;20214;-55
2022/10/11 04:41:38;;;;;;;5.47;4.50;;;19.70;99.90;;;;;;5038410;28;20211;-60
2022/10/11 04:44:05;;;;;;;4.88;4.03;;;19.70;99.90;;;;;;5035403;28;20202;-57
2022/10/11 04:46:32;;;;;;;4.93;4.50;;;19.70;99.90;;;;;;5035866;28;20223;-57
2022/10/11 04:49:00;;;;;;;5.05;4.47;;;19.70;99.90;;;;;;5046801;28;20221;-59
2022/10/11 04:51:27;;;;;;;4.90;4.40;;;19.70;99.90;;;;;;5053204;28;20210;-58
2022/10/11 04:53:54;;;;;;;6.43;4.60;;;19.70;99.90;;;;;;5042524;28;20711;-59
2022/10/11 04:56:21;;;;;;;5.55;4.05;;;19.80;99.90;;;;;;5037794;28;20566;-56
2022/10/11 04:58:48;;;;;;;6.43;4.50;;;20.00;99.90;;;;;;5041321;28;20218;-60
2022/10/11 05:01:15;;;;;;;7.20;4.72;;;20.20;99.90;;;;;;5042719;28;20197;-55
2022/10/11 05:03:42;;;;;;;4.32;3.67;;;20.40;99.90;;;;;;5043526;28;20210;-58
2022/10/11 05:06:10;;;;;;;4.33;3.93;;;20.60;99.90;;;;;;5045819;28;20709;-59
2022/10/11 05:08:37;;;;;;;6.67;4.37;;;20.70;99.90;;;;;;5042256;28;20465;-59
2022/10/11 05:11:05;;;;;;;4.33;3.53;;;20.80;99.90;;;;;;5043618;28;20434;-59
2022/10/11 05:13:34;;;;;;;5.30;4.03;;;20.80;99.90;;;;;;5044549;28;20462;-59
2022/10/11 05:16:01;;;;;;;4.23;3.80;;;20.90;99.90;;;;;;5037633;28;20464;-59
2022/10/11 05:18:28;;;;;;;4.17;3.77;;;21.00;99.90;;;;;;5037323;28;20457;-58
2022/10/11 05:21:00;;;;;;;4.27;3.37;;;21.00;99.90;;;;;;5035776;28;20438;-58
2022/10/11 05:23:28;;;;;;;4.93;4.43;;;21.00;99.90;;;;;;5044036;28;20457;-57
2022/10/11 05:25:54;;;;;;;3.13;2.90;;;21.00;99.90;;;;;;5042190;28;20485;-59
2022/10/11 05:28:21;;;;;;;4.73;4.27;;;21.00;99.90;;;;;;5029839;28;20484;-56
2022/10/11 05:30:48;;;;;;;4.03;3.70;;;21.00;99.90;;;;;;5036462;28;20468;-57
2022/10/11 05:33:15;;;;;;;4.13;3.73;;;21.00;99.90;;;;;;5038432;28;20477;-51
2022/10/11 05:35:42;;;;;;;4.57;3.80;;;21.00;99.90;;;;;;5043360;28;20457;-58
2022/10/11 05:38:09;;;;;;;4.30;3.90;;;20.90;99.90;;;;;;5041287;28;20454;-59
2022/10/11 05:40:38;;;;;;;4.23;3.83;;;20.90;99.90;;;;;;5029344;28;20462;-58
2022/10/11 05:43:05;;;;;;;4.73;4.33;;;20.90;99.90;;;;;;5038796;28;20496;-59
2022/10/11 05:45:34;;;;;;;4.80;4.30;;;20.80;99.90;;;;;;5038734;28;20486;-55
2022/10/11 05:48:01;;;;;;;3.73;3.30;;;20.80;99.90;;;;;;5032920;28;21004;-56
2022/10/11 05:50:28;;;;;;;4.80;3.57;;;20.90;99.90;;;;;;5038510;28;20461;-53
2022/10/11 05:52:56;;;;;;;4.40;3.50;;;21.00;99.90;;;;;;5033721;28;20447;-53
2022/10/11 05:55:22;;;;;;;3.47;3.17;;;21.00;99.90;;;;;;5038929;28;21008;-56
2022/10/11 05:57:53;;;;;;;3.60;3.10;;;21.10;99.90;;;;;;5046586;28;20473;-55
2022/10/11 06:00:20;;;;;;;3.90;3.60;;;21.20;99.90;;;;;;5037568;28;20457;-56
2022/10/11 06:02:46;;;;;;;4.63;4.23;;;21.20;99.90;;;;;;5044368;28;20465;-55
2022/10/11 06:05:13;;;;;;;5.53;4.53;;;21.20;99.90;;;;;;5051158;28;20469;-56
2022/10/11 06:07:40;;;;;;;3.67;3.30;;;21.20;99.90;;;;;;5044705;28;20457;-54
2022/10/11 06:10:08;;;;;;;3.77;3.40;;;21.20;99.90;;;;;;5045921;28;20473;-55
2022/10/11 06:12:35;;;;;;;5.20;3.50;;;21.30;99.90;;;;;;5033037;28;20965;-54
2022/10/11 06:15:04;;;;;;;4.10;3.60;;;21.30;99.90;;;;;;5043025;28;20470;-54
2022/10/11 06:17:30;;;;;;;3.87;3.47;;;21.30;99.90;;;;;;5039313;28;20474;-53
2022/10/11 06:19:57;;;;;;;3.50;3.20;;;21.40;99.90;;;;;;5033452;28;20458;-55
2022/10/11 06:22:25;;;;;;;3.70;3.40;;;21.40;99.90;;;;;;5051195;28;20471;-54
2022/10/11 06:24:52;;;;;;;4.30;3.67;;;21.40;99.90;;;;;;5050086;28;20541;-54
2022/10/11 06:27:18;;;;;;;3.17;2.87;;;21.40;99.90;;;;;;5044688;28;20455;-55
2022/10/11 06:29:45;;;;;;;3.30;3.00;;;21.40;99.90;;;;;;5050927;28;20465;-53
2022/10/11 06:32:13;;;;;;;3.90;3.50;;;21.40;99.90;;;;;;5048512;28;20469;-55
2022/10/11 06:34:40;;;;;;;3.20;2.73;;;21.40;99.90;;;;;;5047505;28;20453;-55
2022/10/11 06:37:07;;;;;;;4.37;3.77;;;21.40;99.90;;;;;;5049893;28;20457;-53
2022/10/11 06:39:34;;;;;;;3.83;3.53;;;21.40;99.90;;;;;;5039482;28;20948;-55
2022/10/11 06:42:00;;;;;;;4.23;3.70;;;21.40;99.90;;;;;;5050977;28;20475;-54
2022/10/11 06:44:27;;;;;;;3.77;3.00;;;21.40;99.90;;;;;;5052669;28;20457;-55
2022/10/11 06:46:54;;;;;;;3.43;3.10;;;21.40;99.90;;;;;;5056273;28;20484;-53
2022/10/11 06:49:22;;;;;;;3.43;3.13;;;21.40;99.90;;;;;;5048490;28;20468;-52
2022/10/11 06:51:49;;;;;;;3.77;3.27;;;21.40;99.90;;;;;;5059926;28;20793;-54
2022/10/11 06:54:15;;;;;;;3.90;3.47;;;21.40;99.90;;;;;;5045657;28;20461;-54
2022/10/11 06:56:43;;;;;;;3.90;3.50;;;21.40;99.90;;;;;;5035543;28;20464;-56
2022/10/11 06:59:10;;;;;;;4.30;3.90;;;21.40;99.90;;;;;;5042618;28;20450;-55
2022/10/11 07:01:37;;;;;;;3.70;3.40;;;21.40;99.90;;;;;;5063687;28;20939;-53
2022/10/11 07:04:04;;;;;;;3.47;3.17;;;21.40;99.90;;;;;;5054828;28;20461;-56
2022/10/11 07:06:38;;;;;;;2.87;2.57;;;21.50;99.90;;;;;;5055571;28;20867;-53
2022/10/11 07:09:06;;;;;;;2.83;2.53;;;21.50;99.90;;;;;;5034073;28;20462;-54
2022/10/11 07:11:33;;;;;;;4.47;3.50;;;21.50;99.80;;;;;;5045406;28;20453;-56
2022/10/11 07:14:01;;;;;;;3.33;3.03;;;21.60;99.70;;;;;;5049538;28;20457;-56
2022/10/11 07:16:28;;;;;;;3.87;3.50;;;21.60;99.60;;;;;;5062761;28;20472;-52
2022/10/11 07:18:57;;;;;;;3.40;3.10;;;21.70;99.60;;;;;;5037864;28;20556;-53
2022/10/11 07:21:24;;;;;;;3.40;3.00;;;21.70;99.40;;;;;;5033450;28;20481;-55
2022/10/11 07:23:52;;;;;;;3.03;2.77;;;21.70;99.30;;;;;;5038240;28;20464;-55
2022/10/11 07:26:19;;;;;;;2.73;2.53;;;21.80;99.20;;;;;;5040556;28;20505;-51
2022/10/11 07:28:46;;;;;;;3.83;2.80;;;21.80;99.10;;;;;;5037618;28;20552;-58
2022/10/11 07:31:16;;;;;;;6.43;4.23;;;21.80;99.40;;;;;;5035134;28;20461;-57
2022/10/11 07:33:43;;;;;;;5.30;3.37;;;21.80;99.90;;;;;;5047343;28;20584;-60
2022/10/11 07:36:10;;;;;;;6.73;3.70;;;21.80;99.90;;;;;;5033861;28;20458;-56
2022/10/11 07:38:39;;;;;;;4.10;3.70;;;21.80;99.90;;;;;;5060019;28;20471;-57
2022/10/11 07:41:09;;;;;;;9.13;4.30;;;21.80;99.90;;;;;;5061331;28;78541;-57
2022/10/11 07:43:35;;;;;;;7.70;3.57;;;21.90;99.90;;;;;;5067976;28;20522;-53
2022/10/11 07:46:03;;;;;;;6.50;4.07;;;21.90;99.90;;;;;;5062288;28;20480;-52
2022/10/11 07:48:30;;;;;;;8.60;4.10;;;22.00;99.90;;;;;;5062409;28;20793;-57
2022/10/11 07:51:02;;;;;;;5.53;3.97;;;22.00;99.90;;;;;;5057482;28;20465;-59
2022/10/11 07:53:29;;;;;;;4.53;3.73;;;22.10;99.90;;;;;;5062723;28;20931;-52
2022/10/11 07:55:59;;;;;;;4.20;3.80;;;22.10;99.90;;;;;;5054634;28;20886;-51
2022/10/11 07:58:27;;;;;;;4.43;3.90;;;22.10;99.90;;;;;;5063506;28;20449;-54
2022/10/11 08:00:54;;;;;;;4.13;3.20;;;22.00;99.90;;;;;;5062991;28;20444;-51
2022/10/11 08:03:21;;;;;;;5.67;3.93;;;22.10;99.90;;;;;;5061937;28;21018;-52
2022/10/11 08:05:48;;;;;;;9.80;3.93;;;22.10;99.90;;;;;;5061392;28;20476;-53
2022/10/11 08:08:15;;;;;;;6.60;3.63;;;22.10;99.90;;;;;;5064228;28;20464;-53
2022/10/11 08:10:41;;;;;;;6.23;4.30;;;22.10;99.80;;;;;;5061027;28;20465;-54
2022/10/11 08:13:08;;;;;;;4.67;4.27;;;22.10;99.70;;;;;;5060274;28;20463;-52
2022/10/11 08:15:36;;;;;;;4.37;3.70;;;22.10;99.60;;;;;;5065861;28;20449;-53
2022/10/11 08:18:03;;;;;;;6.93;3.40;;;22.10;99.50;;;;;;5060939;28;20480;-53
2022/10/11 08:20:31;;;;;;;6.17;4.13;;;22.10;99.40;;;;;;5064436;28;20449;-53
2022/10/11 08:22:58;;;;;;;4.47;3.43;;;22.10;99.30;;;;;;5057218;28;20450;-51
2022/10/11 08:25:25;;;;;;;5.77;3.63;;;22.10;99.20;;;;;;5060594;28;20471;-54
2022/10/11 08:27:52;;;;;;;5.03;3.70;;;22.20;99.10;;;;;;5064853;28;20825;-52
2022/10/11 08:30:18;;;;;;;3.87;3.40;;;22.20;99.00;;;;;;5066711;28;20460;-54
2022/10/11 08:32:46;;;;;;;4.00;3.50;;;22.20;98.90;;;;;;5063884;28;20951;-53
2022/10/11 08:35:13;;;;;;;5.60;3.17;;;22.20;99.10;;;;;;5068709;28;20452;-52
2022/10/11 08:37:40;;;;;;;4.37;3.80;;;22.20;98.70;;;;;;5061771;28;20460;-54
2022/10/11 08:40:08;;;;;;;4.13;3.63;;;22.20;98.50;;;;;;5061946;28;20978;-51
2022/10/11 08:42:40;;;;;;;5.77;3.70;;;22.20;98.00;;;;;;5057100;28;20463;-52
2022/10/11 08:45:10;;;;;;;4.33;3.40;;;22.20;97.70;;;;;;5066683;28;20460;-52
2022/10/11 08:47:39;;;;;;;4.83;3.60;;;22.20;97.40;;;;;;5059063;28;20764;-54
2022/10/11 08:50:18;;;;;;;4.63;3.90;;;22.20;97.20;;;;;;5070725;28;20444;-55
2022/10/11 08:52:48;;;;;;;5.17;3.47;;;22.20;97.10;;;;;;5064376;28;20827;-50
2022/10/11 08:55:21;;;;;;;4.17;3.50;;;22.20;97.00;;;;;;5062698;28;20453;-53
2022/10/11 08:57:52;;;;;;;4.70;3.90;;;22.20;96.90;;;;;;5064479;28;20468;-50
2022/10/11 09:00:21;;;;;;;4.00;3.60;;;22.20;96.90;;;;;;5064633;28;20959;-50
2022/10/11 09:02:57;;;;;;;6.20;4.30;;;22.20;96.80;;;;;;5057152;28;20460;-53
2022/10/11 09:05:31;;;;;;;4.10;3.20;;;22.20;96.80;;;;;;5065118;28;20457;-53
2022/10/11 09:08:03;;;;;;;5.20;4.43;;;22.20;96.80;;;;;;5056421;28;20538;-53
2022/10/11 09:10:47;;;;;;;4.10;2.93;;;22.20;96.80;;;;;;5062633;28;20456;-53
2022/10/11 09:13:42;;;;;;;4.50;2.83;;;22.20;96.90;;;;;;5063511;28;20467;-53
2022/10/11 09:16:16;;;;;;;4.93;3.80;;;22.20;97.10;;;;;;5063367;28;20475;-56
2022/10/11 09:18:55;;;;;;;4.27;3.87;;;22.20;97.30;;;;;;5058826;28;20464;-55
2022/10/11 09:21:30;;;;;;;4.67;2.77;;;22.20;97.30;;;;;;5067303;28;20522;-55
2022/10/11 09:24:21;;;;;;;3.93;3.33;;;22.20;97.40;;;;;;5065656;28;20456;-57
2022/10/11 09:26:54;;;;;;;6.67;2.47;;;22.20;97.40;;;;;;5057151;28;20828;-55
2022/10/11 09:29:31;;;;;;;3.43;3.13;;;22.20;97.60;;;;;;5060603;28;20480;-55
2022/10/11 09:31:59;;;;;;;4.57;3.20;;;22.20;97.80;;;;;;5063007;28;20456;-55
2022/10/11 09:34:31;;;;;;;5.83;2.80;;;22.30;97.90;;;;;;5062815;28;20499;-54
2022/10/11 09:37:06;;;;;;;6.30;3.47;;;22.30;98.00;;;;;;5066241;28;20467;-55
2022/10/11 09:39:34;;;;;;;5.23;2.33;;;22.40;98.20;;;;;;5068805;28;20650;-57
2022/10/11 09:42:04;;;;;;;3.57;3.10;;;22.40;98.20;;;;;;5068754;28;21160;-58
2022/10/11 09:44:36;;;;;;;4.17;2.77;;;22.40;98.20;;;;;;5059136;28;20472;-56
2022/10/11 09:47:03;;;;;;;4.27;3.27;;;22.40;98.20;;;;;;5063945;28;21007;-56
2022/10/11 09:49:35;;;;;;;8.20;2.60;;;22.40;98.20;;;;;;5059479;28;20457;-57
2022/10/11 09:52:11;;;;;;;4.70;3.07;;;22.50;98.30;;;;;;5068199;28;20797;-55
2022/10/11 09:54:41;;;;;;;4.93;3.00;;;22.50;98.30;;;;;;5067534;28;20452;-57
2022/10/11 09:57:21;;;;;;;3.83;3.00;;;22.50;98.30;;;;;;5060170;28;20456;-54
2022/10/11 10:00:04;;;;;;;3.90;3.03;;;22.50;98.30;;;;;;5067340;28;20539;-54
2022/10/11 10:02:40;;;;;;;3.33;3.03;;;22.50;98.30;;;;;;5071503;28;20451;-54
2022/10/11 10:05:18;;;;;;;2.60;2.37;;;22.50;98.30;;;;;;5065600;28;20457;-52
2022/10/11 10:08:06;;;;;;;2.53;2.20;;;22.50;98.30;;;;;;5060908;28;20512;-54
2022/10/11 10:10:37;;;;;;;3.13;2.83;;;22.50;98.30;;;;;;5058833;28;20460;-56
2022/10/11 10:13:06;;;;;;;3.00;2.30;;;22.60;98.40;;;;;;5065081;28;20545;-55
2022/10/11 10:15:35;;;;;;;3.20;2.50;;;22.50;98.30;;;;;;5060161;28;20460;-56
2022/10/11 10:18:02;;;;;;;2.73;2.13;;;22.50;98.40;;;;;;5064006;28;20491;-55
2022/10/11 10:20:33;;;;;;;2.80;2.50;;;22.50;98.40;;;;;;5058576;28;20453;-56
2022/10/11 10:23:09;;;;;;;3.37;3.07;;;22.50;98.40;;;;;;5064213;28;20936;-54
2022/10/11 10:25:38;;;;;;;2.53;2.30;;;22.50;98.50;;;;;;5066124;28;20443;-58
2022/10/11 10:28:17;;;;;;;3.10;2.60;;;22.50;98.50;;;;;;5070226;28;20487;-57
2022/10/11 10:30:53;;;;;;;2.53;2.33;;;22.50;98.50;;;;;;5058476;28;20468;-56
2022/10/11 10:33:20;;;;;;;4.50;2.33;;;22.50;98.40;;;;;;5061878;28;20863;-56
2022/10/11 10:35:52;;;;;;;2.90;2.53;;;22.60;98.50;;;;;;5065178;28;20471;-56
2022/10/11 10:38:26;;;;;;;3.00;2.27;;;22.60;98.50;;;;;;5065262;28;20460;-56
2022/10/11 10:40:55;;;;;;;3.83;2.37;;;22.60;98.50;;;;;;5064637;28;20544;-51
2022/10/11 10:43:24;;;;;;;2.73;2.20;;;22.60;98.60;;;;;;5067837;28;20451;-51
2022/10/11 10:46:26;;;;;;;3.03;2.37;;;22.60;98.60;;;;;;5054139;28;21185;-53
2022/10/11 10:49:00;;;;;;;2.63;2.10;;;22.50;98.60;;;;;;5001626;28;20478;-55
2022/10/11 10:51:39;;;;;;;2.83;2.30;;;22.60;98.60;;;;;;5013344;28;86827;-57
2022/10/11 10:54:15;;;;;;;4.00;2.70;;;22.60;98.70;;;;;;5025689;28;20470;-55
2022/10/11 10:56:49;;;;;;;2.40;2.20;;;22.60;98.70;;;;;;5018560;28;20478;-54
2022/10/11 10:59:34;;;;;;;2.63;2.43;;;22.60;98.70;;;;;;5022295;28;20457;-56
2022/10/11 11:02:09;;;;;;;2.63;2.43;;;22.50;98.60;;;;;;5027577;28;20600;-53
2022/10/11 11:04:37;;;;;;;2.33;2.00;;;22.60;98.70;;;;;;5022418;28;20454;-55
2022/10/11 11:07:15;;;;;;;2.77;2.27;;;22.50;98.60;;;;;;5026580;28;20505;-56
2022/10/11 11:09:49;;;;;;;3.10;2.60;;;22.50;98.60;;;;;;5018108;28;20924;-54
2022/10/11 11:12:35;;;;;;;2.77;2.57;;;22.60;98.70;;;;;;5028586;28;20948;-57
2022/10/11 11:15:09;;;;;;;2.30;2.10;;;22.50;98.60;;;;;;5022748;28;20462;-57
2022/10/11 11:17:49;;;;;;;4.33;2.37;;;22.50;98.70;;;;;;5027558;28;20481;-57
2022/10/11 11:20:27;;;;;;;3.23;2.70;;;22.50;98.90;;;;;;5021307;28;20458;-55
2022/10/11 11:23:01;;;;;;;3.60;2.20;;;22.50;98.90;;;;;;5025120;28;20470;-54
2022/10/11 11:25:39;;;;;;;4.83;2.00;;;22.50;98.90;;;;;;5026132;28;20505;-53
2022/10/11 11:28:22;;;;;;;3.27;2.50;;;22.50;98.90;;;;;;5027522;28;20544;-56
2022/10/11 11:30:58;;;;;;;5.43;1.93;;;22.50;98.90;;;;;;5017019;28;20558;-57
2022/10/11 11:33:34;;;;;;;2.73;2.10;;;22.60;99.00;;;;;;5025800;28;20451;-57
2022/10/11 11:36:04;;;;;;;2.73;2.20;;;22.60;99.00;;;;;;5026554;28;20455;-58
2022/10/11 11:38:42;;;;;;;2.27;1.90;;;22.60;99.00;;;;;;5017532;28;20936;-54
2022/10/11 11:41:14;;;;;;;3.17;2.30;;;22.60;99.00;;;;;;5025159;28;20462;-60
2022/10/11 11:43:57;;;;;;;1.83;1.73;;;22.60;99.00;;;;;;5020376;28;20467;-60
2022/10/11 11:46:26;;;;;;;2.93;2.10;;;22.60;99.00;;;;;;5025841;28;20458;-57
2022/10/11 11:48:56;;;;;;;3.67;2.00;;;22.60;99.00;;;;;;5023504;28;20450;-60
2022/10/11 11:51:28;;;;;;;3.50;2.40;;;22.60;99.30;;;;;;5010675;28;20534;-57
2022/10/11 11:54:04;;;;;;;3.93;2.57;;;22.60;99.00;;;;;;5026333;28;20787;-59
2022/10/11 11:56:46;;;;;;;2.43;2.23;;;22.60;98.90;;;;;;5019205;28;20466;-57
2022/10/11 11:59:21;;;;;;;2.20;1.97;;;22.70;99.00;;;;;;5015807;28;20532;-61
2022/10/11 12:01:57;;;;;;;2.40;2.20;;;22.70;99.00;;;;;;5022742;28;20469;-55
2022/10/11 12:04:29;;;;;;;2.60;2.10;;;22.70;99.00;;;;;;5026009;28;20462;-59
2022/10/11 12:07:04;;;;;;;2.47;2.20;;;22.70;99.00;;;;;;5024169;28;20482;-57
2022/10/11 12:09:32;;;;;;;2.80;1.70;;;22.70;99.00;;;;;;5021577;28;20458;-57
2022/10/11 12:12:03;;;;;;;3.40;2.60;;;22.70;98.90;;;;;;5027564;28;20458;-59
2022/10/11 12:14:39;;;;;;;3.37;1.70;;;22.70;98.90;;;;;;5030981;28;20447;-56
2022/10/11 12:17:16;;;;;;;2.20;1.90;;;22.70;98.90;;;;;;5027179;28;20487;-58
2022/10/11 12:19:58;;;;;;;2.30;2.10;;;22.70;99.00;;;;;;5026312;28;20458;-57
2022/10/11 12:22:54;;;;;;;2.40;2.00;;;22.70;98.80;;;;;;5028783;28;20482;-60
2022/10/11 12:25:42;;;;;;;2.37;1.97;;;22.70;98.90;;;;;;4987716;28;20457;-49
2022/10/11 12:28:48;;;;;;;1.93;1.77;;;22.70;98.90;;;;;;5019031;28;20474;-49
2022/10/11 12:31:23;;;;;;;3.90;1.87;;;22.70;99.00;;;;;;5027351;28;20461;-49
2022/10/11 12:33:54;;;;;;;2.40;1.80;;;22.70;99.00;;;;;;5022006;28;20465;-51
2022/10/11 12:36:39;;;;;;;3.20;2.13;;;22.60;98.90;;;;;;5024528;28;20520;-50
2022/10/11 12:39:49;;;;;;;3.53;2.50;;;22.70;99.00;;;;;;5019933;28;20462;-50
2022/10/11 12:42:28;;;;;;;2.90;1.77;;;22.70;98.90;;;;;;5028151;28;20934;-55
2022/10/11 12:45:30;;;;;;;2.00;1.70;;;22.60;98.90;;;;;;5029006;28;20490;-53
2022/10/11 12:48:12;;;;;;;1.97;1.50;;;22.70;99.00;;;;;;5026386;28;20516;-54
2022/10/11 12:50:48;;;;;;;2.23;2.03;;;22.60;99.00;;;;;;5017362;28;20482;-54
2022/10/11 12:53:30;;;;;;;3.70;2.03;;;22.60;99.00;;;;;;5022236;28;20466;-53
2022/10/11 12:56:01;;;;;;;2.70;2.10;;;22.60;99.00;;;;;;5027583;28;20461;-52
2022/10/11 12:58:37;;;;;;;5.33;1.83;;;22.60;99.00;;;;;;5019585;28;20462;-43
2022/10/11 13:01:23;;;;;;;7.97;2.20;;;20.80;66.50;;;;;;5021851;28;21028;-42
2022/10/11 13:04:03;;;;;;;8.05;1.60;;;18.50;71.80;;;;;;5019041;28;20197;-42
2022/10/11 13:06:33;;;;;;;8.48;1.92;;;17.80;73.30;;;;;;5033715;28;20199;-42